EKKA/KRP METAR and TAF weather

Enter ICAO airport designator
Station Type Date Time Source
EKKA METAR 2021/07/27 21:20 UTC NOAA

EKKA 272120Z AUTO 18003KT 9999 FEW011/// 16/16 Q1008


Station Type Date Time Source
EKKA Decoded METAR 2021/07/27 21:20 UTC NOAA

Karup, Denmark (EKKA) 56-18N 009-07E 53M
Jul 27, 2021 - 05:20 PM EDT / 2021.07.27 2120 UTC
Wind: from the S (180 degrees) at 3 MPH (3 KT):0
Visibility: greater than 7 mile(s):0
Sky conditions: mostly clear
Temperature: 60 F (16 C)
Dew Point: 60 F (16 C)
Relative Humidity: 100%
Pressure (altimeter): 29.77 in. Hg (1008 hPa)
ob: EKKA 272120Z AUTO 18003KT 9999 FEW011/// 16/16 Q1008
cycle: 21

Station Type Date Time Source
EKKA TAF 2021/07/27 21:31 UTC NOAA

TAF EKKA 272010Z 2721/2821 20008KT 9999 SCT080
TEMPO 2721/2806 4000 BR -SHRA BKN008 FEW030CB
TEMPO 2806/2810 7000 -SHRA FEW030CB
TEMPO 2810/2821 5000 SHRA SCT030CB PROB40
TEMPO 2810/2821 TSRA

Example: see airport list